createdAt,value
2023-05-10T00:04:12.457Z,97200.22
2023-05-10T00:09:14.837Z,97193.66
2023-05-10T00:14:16.843Z,97188.72
2023-05-10T00:19:18.834Z,97187.31
2023-05-10T00:24:20.687Z,97178.50
2023-05-10T00:29:22.558Z,97178.13
2023-05-10T00:34:24.453Z,97177.31
2023-05-10T00:39:27.753Z,97174.91
2023-05-10T00:44:29.695Z,97173.72
2023-05-10T00:49:32.309Z,97172.22
2023-05-10T00:54:34.365Z,97159.38
2023-05-10T00:59:36.355Z,97159.44
2023-05-10T01:04:39.099Z,97160.09
2023-05-10T01:09:41.245Z,97153.50
2023-05-10T01:14:43.486Z,97152.44
2023-05-10T01:19:45.537Z,97152.22
2023-05-10T01:25:15.434Z,97146.91
2023-05-10T01:30:36.487Z,97139.00
2023-05-10T01:35:48.871Z,97130.97
2023-05-10T01:41:32.309Z,97136.66
2023-05-10T01:46:38.849Z,97131.31
2023-05-10T01:51:48.312Z,97138.28
2023-05-10T01:57:04.225Z,97134.88
2023-05-10T02:02:07.082Z,97129.56
2023-05-10T02:07:10.635Z,97146.31
2023-05-10T02:12:15.066Z,97142.22
2023-05-10T02:17:17.853Z,97145.16
2023-05-10T02:22:21.347Z,97148.59
2023-05-10T02:27:25.592Z,97146.47
2023-05-10T02:32:28.808Z,97131.84
2023-05-10T02:37:33.464Z,97124.03
2023-05-10T02:42:38.070Z,97140.06
2023-05-10T02:47:40.408Z,97128.28
2023-05-10T02:52:55.594Z,97130.00
2023-05-10T02:58:01.195Z,97141.47
2023-05-10T03:03:03.181Z,97147.22
2023-05-10T03:08:05.961Z,97138.22
2023-05-10T03:13:29.471Z,97154.25
2023-05-10T03:18:51.960Z,97149.75
2023-05-10T03:24:03.593Z,97157.63
2023-05-10T03:29:07.506Z,97157.97
2023-05-10T03:34:09.417Z,97151.53
2023-05-10T03:39:11.578Z,97144.41
2023-05-10T03:44:13.801Z,97149.00
2023-05-10T03:49:15.728Z,97153.81
2023-05-10T03:54:17.762Z,97147.75
2023-05-10T03:59:21.893Z,97141.44
2023-05-10T04:04:24.348Z,97142.13
2023-05-10T04:09:27.011Z,97143.19
2023-05-10T04:14:29.173Z,97142.84
2023-05-10T04:19:31.720Z,97142.56
2023-05-10T04:24:33.563Z,97136.25
2023-05-10T04:29:35.429Z,97133.72
2023-05-10T04:34:38.343Z,97133.00
2023-05-10T04:39:42.286Z,97130.53
2023-05-10T04:44:44.721Z,97127.81
2023-05-10T04:49:46.739Z,97131.84
2023-05-10T04:54:48.730Z,97136.72
2023-05-10T04:59:50.728Z,97135.97
2023-05-10T05:04:52.617Z,97141.59
2023-05-10T05:09:54.508Z,97144.56
2023-05-10T05:14:56.356Z,97139.97
2023-05-10T05:19:58.251Z,97146.00
2023-05-10T05:25:00.288Z,97150.72
2023-05-10T05:30:02.162Z,97149.75
2023-05-10T05:35:04.185Z,97147.50
2023-05-10T05:40:08.325Z,97145.44
2023-05-10T05:45:14.061Z,97143.84
2023-05-10T05:50:16.328Z,97143.44
2023-05-10T05:55:18.782Z,97145.06
2023-05-10T06:00:20.808Z,97151.91
2023-05-10T06:05:22.771Z,97158.88
2023-05-10T06:10:25.884Z,97161.19
2023-05-10T06:15:28.456Z,97169.78
2023-05-10T06:20:32.478Z,97170.47
2023-05-10T06:25:34.451Z,97170.03
2023-05-10T06:30:37.696Z,97165.81
2023-05-10T06:35:40.005Z,97167.00
2023-05-10T06:40:44.952Z,97174.66
2023-05-10T06:45:47.176Z,97176.50
2023-05-10T06:50:49.065Z,97175.59
2023-05-10T06:55:51.218Z,97180.44
2023-05-10T07:00:53.187Z,97182.88
2023-05-10T07:05:56.259Z,97180.00
2023-05-10T07:11:06.056Z,97192.38
2023-05-10T07:16:08.726Z,97188.94
2023-05-10T07:21:10.840Z,97190.19
2023-05-10T07:26:12.813Z,97188.78
2023-05-10T07:31:14.725Z,97194.91
2023-05-10T07:36:16.760Z,97195.75
2023-05-10T07:41:18.678Z,97207.78
2023-05-10T07:46:20.854Z,97214.88
2023-05-10T07:51:22.892Z,97220.06
2023-05-10T07:56:30.684Z,97215.50
2023-05-10T08:01:33.762Z,97224.72
2023-05-10T08:06:35.688Z,97230.53
2023-05-10T08:11:37.681Z,97240.47
2023-05-10T08:16:39.642Z,97243.47
2023-05-10T08:21:43.182Z,97250.19
2023-05-10T08:26:45.030Z,97257.47
2023-05-10T08:31:46.974Z,97258.84
2023-05-10T08:36:48.848Z,97268.38
2023-05-10T08:41:52.634Z,97272.03
2023-05-10T08:46:56.052Z,97272.88
2023-05-10T08:52:00.779Z,97275.56
2023-05-10T08:57:03.009Z,97287.59
2023-05-10T09:02:05.971Z,97291.06
2023-05-10T09:07:08.382Z,97294.56
2023-05-10T09:12:12.596Z,97300.13
2023-05-10T09:17:14.699Z,97304.81
2023-05-10T09:22:17.592Z,97312.28
2023-05-10T09:27:27.972Z,97320.84
2023-05-10T09:32:42.885Z,97319.75
2023-05-10T09:37:49.962Z,97327.09
2023-05-10T09:42:55.964Z,97333.00
2023-05-10T09:47:59.044Z,97334.66
2023-05-10T09:53:03.837Z,97344.06
2023-05-10T09:58:10.521Z,97344.50
2023-05-10T10:03:17.668Z,97350.72
2023-05-10T10:08:19.576Z,97348.47
2023-05-10T10:13:21.832Z,97339.88
2023-05-10T10:18:28.232Z,97348.88
2023-05-10T10:23:30.272Z,97342.78
2023-05-10T10:29:05.634Z,97344.06
2023-05-10T10:34:10.694Z,97348.06
2023-05-10T10:39:13.377Z,97342.97
2023-05-10T10:44:27.569Z,97352.59
2023-05-10T10:49:33.578Z,97355.22
2023-05-10T10:54:36.434Z,97357.34
2023-05-10T10:59:44.119Z,97361.19
2023-05-10T11:04:47.676Z,97355.78
2023-05-10T11:09:49.893Z,97363.25
2023-05-10T11:14:52.473Z,97365.69
2023-05-10T11:20:08.922Z,97371.00
2023-05-10T11:25:10.871Z,97365.97
2023-05-10T11:30:13.404Z,97376.41
2023-05-10T11:35:15.829Z,97383.63
2023-05-10T11:40:18.135Z,97382.63
2023-05-10T11:45:20.423Z,97384.84
2023-05-10T11:50:22.584Z,97389.66
2023-05-10T11:55:25.358Z,97381.03
2023-05-10T12:00:27.342Z,97379.97
2023-05-10T12:05:32.698Z,97384.59
2023-05-10T12:10:35.912Z,97388.53
2023-05-10T12:15:37.802Z,97403.50
2023-05-10T12:20:40.446Z,97404.94
2023-05-10T12:25:42.369Z,97403.63
2023-05-10T12:30:45.123Z,97416.78
2023-05-10T12:35:55.197Z,97416.28
2023-05-10T12:41:18.730Z,97411.38
2023-05-10T12:46:20.830Z,97416.16
2023-05-10T12:51:23.625Z,97409.97
2023-05-10T12:56:25.590Z,97417.91
2023-05-10T13:01:27.529Z,97407.13
2023-05-10T13:06:29.590Z,97412.69
2023-05-10T13:11:31.570Z,97419.63
2023-05-10T13:16:33.876Z,97416.59
2023-05-10T13:21:35.835Z,97410.13
2023-05-10T13:26:38.136Z,97406.03
2023-05-10T13:31:40.159Z,97407.00
2023-05-10T13:36:42.188Z,97406.16
2023-05-10T13:41:44.089Z,97410.81
2023-05-10T13:46:46.261Z,97407.38
2023-05-10T13:51:48.225Z,97400.13
2023-05-10T13:56:50.214Z,97404.78
2023-05-10T14:01:52.336Z,97400.75
2023-05-10T14:06:54.184Z,97398.94
2023-05-10T14:11:56.961Z,97396.75
2023-05-10T14:16:59.143Z,97396.75
2023-05-10T14:22:01.360Z,97396.88
2023-05-10T14:27:03.416Z,97400.53
2023-05-10T14:32:05.428Z,97400.09
2023-05-10T14:37:07.465Z,97399.00
2023-05-10T14:42:09.941Z,97399.16
2023-05-10T14:47:12.452Z,97401.22
2023-05-10T14:52:15.376Z,97400.13
2023-05-10T14:57:17.314Z,97401.28
2023-05-10T15:02:19.216Z,97403.22
2023-05-10T15:07:21.595Z,97409.66
2023-05-10T15:12:23.489Z,97404.97
2023-05-10T15:17:25.548Z,97405.56
2023-05-10T15:22:29.315Z,97397.44
2023-05-10T15:27:31.201Z,97411.16
2023-05-10T15:32:33.115Z,97408.72
2023-05-10T15:37:35.044Z,97406.53
2023-05-10T15:42:38.155Z,97405.41
2023-05-10T15:47:42.781Z,97408.09
2023-05-10T15:52:44.727Z,97406.09
2023-05-10T15:57:46.817Z,97413.97
2023-05-10T16:02:48.730Z,97413.91
2023-05-10T16:07:50.685Z,97408.56
2023-05-10T16:12:54.433Z,97405.59
2023-05-10T16:17:56.690Z,97406.06
2023-05-10T16:23:03.797Z,97411.69
2023-05-10T16:28:05.791Z,97404.25
2023-05-10T16:33:07.658Z,97406.16
2023-05-10T16:38:09.534Z,97409.06
2023-05-10T16:43:11.374Z,97408.31
2023-05-10T16:48:13.195Z,97408.13
2023-05-10T16:53:15.678Z,97411.34
2023-05-10T16:58:17.516Z,97421.59
2023-05-10T17:03:19.540Z,97425.63
2023-05-10T17:08:22.299Z,97428.47
2023-05-10T17:13:24.118Z,97428.03
2023-05-10T17:18:26.848Z,97418.38
2023-05-10T17:23:29.174Z,97428.25
2023-05-10T17:28:31.180Z,97434.66
2023-05-10T17:33:33.084Z,97437.91
2023-05-10T17:38:36.162Z,97435.88
2023-05-10T17:43:38.000Z,97435.28
2023-05-10T17:48:39.926Z,97435.47
2023-05-10T17:53:41.850Z,97436.50
2023-05-10T17:58:43.964Z,97436.28
2023-05-10T18:03:46.395Z,97436.47
2023-05-10T18:08:48.358Z,97436.06
2023-05-10T18:13:50.228Z,97436.44
2023-05-10T18:18:52.160Z,97443.69
2023-05-10T18:23:54.614Z,97448.88
2023-05-10T18:28:57.323Z,97448.50
2023-05-10T18:33:59.899Z,97453.50
2023-05-10T18:39:01.749Z,97448.88
2023-05-10T18:44:03.824Z,97456.88
2023-05-10T18:49:06.643Z,97462.88
2023-05-10T18:54:08.557Z,97474.47
2023-05-10T18:59:11.152Z,97490.91
2023-05-10T19:04:13.027Z,97492.91
2023-05-10T19:09:14.909Z,97496.31
2023-05-10T19:14:16.767Z,97500.72
2023-05-10T19:19:18.753Z,97497.75
2023-05-10T19:24:24.406Z,97498.75
2023-05-10T19:29:26.233Z,97499.72
2023-05-10T19:34:28.868Z,97504.50
2023-05-10T19:39:32.582Z,97503.75
2023-05-10T19:44:34.415Z,97502.47
2023-05-10T19:49:36.494Z,97505.66
2023-05-10T19:54:38.381Z,97501.19
2023-05-10T19:59:40.228Z,97502.19
2023-05-10T20:04:42.025Z,97511.56
2023-05-10T20:09:44.423Z,97505.56
2023-05-10T20:14:46.380Z,97512.38
2023-05-10T20:19:48.195Z,97518.97
2023-05-10T20:24:50.052Z,97528.34
2023-05-10T20:29:51.868Z,97537.97
2023-05-10T20:34:53.731Z,97530.75
2023-05-10T20:39:56.497Z,97540.03
2023-05-10T20:44:58.715Z,97536.22
2023-05-10T20:50:00.627Z,97532.00
2023-05-10T20:55:02.440Z,97532.38
2023-05-10T21:00:05.686Z,97527.16
2023-05-10T21:05:08.017Z,97529.75
2023-05-10T21:10:11.643Z,97527.16
2023-05-10T21:15:13.698Z,97526.13
2023-05-10T21:20:15.693Z,97521.91
2023-05-10T21:25:18.068Z,97527.56
2023-05-10T21:30:20.279Z,97525.56
2023-05-10T21:35:22.132Z,97527.34
2023-05-10T21:40:24.225Z,97535.78
2023-05-10T21:45:26.299Z,97537.81
2023-05-10T21:50:28.633Z,97538.81
2023-05-10T21:55:30.467Z,97541.63
2023-05-10T22:00:34.213Z,97542.19
2023-05-10T22:05:36.252Z,97541.19
2023-05-10T22:10:38.110Z,97544.38
2023-05-10T22:15:39.924Z,97536.13
2023-05-10T22:20:44.909Z,97540.34
2023-05-10T22:25:46.853Z,97537.97
2023-05-10T22:30:48.714Z,97536.75
2023-05-10T22:35:50.516Z,97539.34
2023-05-10T22:40:52.373Z,97529.28
2023-05-10T22:45:54.463Z,97531.28
2023-05-10T22:50:56.338Z,97533.50
2023-05-10T22:55:58.338Z,97532.72
2023-05-10T23:01:00.365Z,97527.50
2023-05-10T23:06:02.161Z,97526.53
2023-05-10T23:11:03.998Z,97531.91
2023-05-10T23:16:06.883Z,97541.97
2023-05-10T23:21:08.794Z,97537.19
2023-05-10T23:26:10.630Z,97534.97
2023-05-10T23:31:12.448Z,97534.38
2023-05-10T23:36:14.282Z,97533.16
2023-05-10T23:41:16.101Z,97531.41
2023-05-10T23:46:17.970Z,97524.38
2023-05-10T23:51:19.816Z,97523.56
2023-05-10T23:56:22.214Z,97517.94
